createdAt,value
2018-05-06T00:02:07.030Z,10.23
2018-05-06T00:04:33.785Z,9.80
2018-05-06T00:07:00.606Z,10.67
2018-05-06T00:09:27.361Z,9.50
2018-05-06T00:11:54.118Z,12.50
2018-05-06T00:14:20.853Z,13.87
2018-05-06T00:16:47.585Z,10.97
2018-05-06T00:19:14.328Z,9.83
2018-05-06T00:21:41.073Z,11.13
2018-05-06T00:24:07.818Z,10.50
2018-05-06T00:26:34.532Z,14.13
2018-05-06T00:29:01.274Z,10.27
2018-05-06T00:31:27.994Z,10.00
2018-05-06T00:33:54.713Z,10.50
2018-05-06T00:36:21.462Z,9.33
2018-05-06T00:38:48.185Z,10.40
2018-05-06T00:41:14.921Z,11.60
2018-05-06T00:43:41.669Z,10.03
2018-05-06T00:46:08.384Z,10.60
2018-05-06T00:48:35.101Z,12.00
2018-05-06T00:51:01.871Z,10.50
2018-05-06T00:53:28.572Z,12.90
2018-05-06T00:55:55.280Z,10.23
2018-05-06T00:58:22.027Z,10.10
2018-05-06T01:00:48.771Z,12.70
2018-05-06T01:03:15.516Z,10.13
2018-05-06T01:05:42.307Z,11.60
2018-05-06T01:08:09.018Z,12.17
2018-05-06T01:10:35.780Z,17.17
2018-05-06T01:13:02.504Z,13.73
2018-05-06T01:15:29.254Z,10.57
2018-05-06T01:17:56.023Z,11.67
2018-05-06T01:20:22.856Z,14.83
2018-05-06T01:22:49.661Z,16.00
2018-05-06T01:25:16.383Z,13.90
2018-05-06T01:27:43.138Z,18.47
2018-05-06T01:30:09.922Z,15.50
2018-05-06T01:32:36.646Z,19.87
2018-05-06T01:35:03.421Z,13.60
2018-05-06T01:37:30.124Z,13.27
2018-05-06T01:39:56.879Z,13.63
2018-05-06T01:42:23.625Z,17.47
2018-05-06T01:44:50.382Z,14.57
2018-05-06T01:47:17.155Z,16.07
2018-05-06T01:49:43.903Z,14.13
2018-05-06T01:52:10.634Z,16.83
2018-05-06T01:54:37.423Z,15.40
2018-05-06T01:57:04.139Z,16.37
2018-05-06T01:59:30.917Z,16.97
2018-05-06T02:01:57.671Z,15.73
2018-05-06T02:04:24.413Z,17.17
2018-05-06T02:06:51.160Z,25.50
2018-05-06T02:09:17.894Z,19.07
2018-05-06T02:11:44.598Z,23.00
2018-05-06T02:14:11.341Z,17.53
2018-05-06T02:16:38.075Z,16.63
2018-05-06T02:19:04.797Z,15.90
2018-05-06T02:21:31.546Z,16.97
2018-05-06T02:23:58.281Z,18.63
2018-05-06T02:26:24.995Z,21.40
2018-05-06T02:28:51.735Z,17.87
2018-05-06T02:31:18.454Z,18.10
2018-05-06T02:33:45.206Z,17.80
2018-05-06T02:36:11.981Z,21.13
2018-05-06T02:38:38.699Z,18.87
2018-05-06T02:41:05.509Z,17.70
2018-05-06T02:43:32.271Z,16.60
2018-05-06T02:45:59.000Z,19.73
2018-05-06T02:48:25.750Z,24.53
2018-05-06T02:50:52.473Z,18.73
2018-05-06T02:53:19.214Z,18.13
2018-05-06T02:55:45.960Z,18.13
2018-05-06T02:58:12.679Z,18.77
2018-05-06T03:00:39.410Z,23.30
2018-05-06T03:03:06.178Z,19.93
2018-05-06T03:05:32.919Z,19.93
2018-05-06T03:07:59.637Z,20.53
2018-05-06T03:10:26.472Z,20.17
2018-05-06T03:12:53.170Z,20.97
2018-05-06T03:15:19.894Z,22.57
2018-05-06T03:17:46.651Z,21.03
2018-05-06T03:20:13.368Z,19.47
2018-05-06T03:22:40.109Z,19.73
2018-05-06T03:25:06.859Z,19.57
2018-05-06T03:27:33.579Z,20.33
2018-05-06T03:30:00.317Z,20.10
2018-05-06T03:32:27.068Z,20.17
2018-05-06T03:34:53.793Z,19.90
2018-05-06T03:37:20.533Z,20.00
2018-05-06T03:39:47.254Z,19.10
2018-05-06T03:42:13.979Z,23.13
2018-05-06T03:44:40.720Z,20.13
2018-05-06T03:47:07.430Z,18.40
2018-05-06T03:49:34.158Z,20.67
2018-05-06T03:52:00.939Z,21.20
2018-05-06T03:54:27.692Z,21.37
2018-05-06T03:57:00.296Z,21.70
2018-05-06T03:59:32.967Z,21.50
2018-05-06T04:02:17.412Z,22.23
2018-05-06T04:04:44.162Z,21.20
2018-05-06T04:07:10.903Z,22.87
2018-05-06T04:09:37.688Z,19.93
2018-05-06T04:12:04.421Z,23.60
2018-05-06T04:14:31.125Z,22.43
2018-05-06T04:16:57.865Z,23.33
2018-05-06T04:19:24.579Z,22.40
2018-05-06T04:21:51.409Z,22.00
2018-05-06T04:24:18.143Z,24.10
2018-05-06T04:26:44.906Z,26.73
2018-05-06T04:29:11.642Z,22.93
2018-05-06T04:31:38.362Z,24.20
2018-05-06T04:34:05.103Z,30.00
2018-05-06T04:36:31.827Z,24.70
2018-05-06T04:38:58.538Z,24.23
2018-05-06T04:41:25.290Z,23.80
2018-05-06T04:43:52.031Z,22.53
2018-05-06T04:46:18.764Z,22.60
2018-05-06T04:48:45.497Z,22.60
2018-05-06T04:51:12.201Z,21.90
2018-05-06T04:53:38.934Z,22.83
2018-05-06T04:56:05.685Z,24.00
2018-05-06T04:58:32.435Z,24.73
2018-05-06T05:00:59.216Z,24.77
2018-05-06T05:03:26.005Z,28.90
2018-05-06T05:05:52.710Z,23.53
2018-05-06T05:08:19.428Z,24.37
2018-05-06T05:10:46.198Z,23.30
2018-05-06T05:13:12.926Z,22.07
2018-05-06T05:15:39.660Z,23.53
2018-05-06T05:18:06.471Z,21.67
2018-05-06T05:20:33.212Z,20.50
2018-05-06T05:23:00.020Z,22.37
2018-05-06T05:25:26.757Z,22.63
2018-05-06T05:27:53.462Z,22.50
2018-05-06T05:30:20.222Z,21.83
2018-05-06T05:32:46.947Z,21.93
2018-05-06T05:35:13.684Z,21.90
2018-05-06T05:37:40.423Z,22.03
2018-05-06T05:40:07.134Z,21.57
2018-05-06T05:42:33.893Z,21.23
2018-05-06T05:45:00.611Z,21.27
2018-05-06T05:47:27.348Z,20.83
2018-05-06T05:49:54.079Z,21.83
2018-05-06T05:52:20.798Z,21.30
2018-05-06T05:54:47.522Z,21.10
2018-05-06T05:57:14.273Z,22.87
2018-05-06T05:59:41.000Z,21.27
2018-05-06T06:02:07.785Z,19.30
2018-05-06T06:04:34.514Z,18.90
2018-05-06T06:07:01.242Z,19.83
2018-05-06T06:09:28.020Z,23.00
2018-05-06T06:11:54.925Z,18.33
2018-05-06T06:14:21.700Z,17.80
2018-05-06T06:16:48.433Z,20.00
2018-05-06T06:19:15.728Z,17.60
2018-05-06T06:21:42.487Z,18.50
2018-05-06T06:24:09.226Z,17.03
2018-05-06T06:26:35.997Z,17.43
2018-05-06T06:29:02.726Z,15.70
2018-05-06T06:31:29.434Z,18.40
2018-05-06T06:33:56.209Z,17.60
2018-05-06T06:36:22.922Z,16.97
2018-05-06T06:38:49.651Z,19.90
2018-05-06T06:41:16.457Z,18.10
2018-05-06T06:43:43.199Z,16.60
2018-05-06T06:46:09.941Z,17.73
2018-05-06T06:48:36.747Z,18.10
2018-05-06T06:51:03.493Z,17.83
2018-05-06T06:53:30.207Z,17.67
2018-05-06T06:55:56.970Z,19.00
2018-05-06T06:58:23.734Z,16.33
2018-05-06T07:00:50.441Z,15.97
2018-05-06T07:03:17.173Z,16.83
2018-05-06T07:05:43.876Z,17.43
2018-05-06T07:08:10.676Z,16.13
2018-05-06T07:10:37.438Z,20.60
2018-05-06T07:13:04.148Z,20.73
2018-05-06T07:15:30.883Z,18.23
2018-05-06T07:17:57.612Z,17.57
2018-05-06T07:20:24.345Z,18.50
2018-05-06T07:22:51.114Z,19.30
2018-05-06T07:25:17.845Z,18.67
2018-05-06T07:27:44.578Z,17.47
2018-05-06T07:30:11.284Z,18.90
2018-05-06T07:32:38.035Z,16.83
2018-05-06T07:35:04.759Z,19.83
2018-05-06T07:37:31.490Z,16.87
2018-05-06T07:39:58.205Z,16.30
2018-05-06T07:42:24.932Z,16.83
2018-05-06T07:44:51.663Z,16.70
2018-05-06T07:47:18.370Z,16.23
2018-05-06T07:49:45.121Z,17.47
2018-05-06T07:52:11.844Z,16.63
2018-05-06T07:54:38.564Z,17.00
2018-05-06T07:57:05.314Z,16.90
2018-05-06T07:59:32.031Z,15.97
2018-05-06T08:01:58.803Z,13.97
2018-05-06T08:04:25.551Z,16.07
2018-05-06T08:06:52.268Z,15.17
2018-05-06T08:09:19.009Z,15.00
2018-05-06T08:11:45.723Z,13.93
2018-05-06T08:14:12.493Z,14.40
2018-05-06T08:16:39.237Z,14.20
2018-05-06T08:19:05.940Z,14.80
2018-05-06T08:21:32.702Z,13.17
2018-05-06T08:23:59.409Z,15.07
2018-05-06T08:26:26.165Z,13.63
2018-05-06T08:28:52.908Z,12.37
2018-05-06T08:31:19.609Z,15.80
2018-05-06T08:33:46.330Z,13.40
2018-05-06T08:36:13.072Z,13.47
2018-05-06T08:38:39.778Z,13.67
2018-05-06T08:41:06.503Z,14.00
2018-05-06T08:43:34.193Z,14.13
2018-05-06T08:46:00.908Z,13.67
2018-05-06T08:48:27.658Z,13.30
2018-05-06T08:50:54.398Z,13.60
2018-05-06T08:53:21.123Z,14.20
2018-05-06T08:55:47.849Z,13.60
2018-05-06T08:58:14.557Z,16.00
2018-05-06T09:00:41.285Z,13.57
2018-05-06T09:03:08.018Z,13.07
2018-05-06T09:05:34.720Z,13.53
2018-05-06T09:08:01.452Z,13.20
2018-05-06T09:10:28.149Z,12.67
2018-05-06T09:12:54.885Z,13.27
2018-05-06T09:15:21.585Z,15.70
2018-05-06T09:17:48.281Z,12.53
2018-05-06T09:20:15.046Z,13.67
2018-05-06T09:22:41.758Z,13.00
2018-05-06T09:25:08.470Z,12.10
2018-05-06T09:27:35.196Z,12.50
2018-05-06T09:30:01.899Z,11.20
2018-05-06T09:32:28.626Z,11.07
2018-05-06T09:34:55.335Z,10.40
2018-05-06T09:37:22.036Z,10.23
2018-05-06T09:39:48.756Z,11.87
2018-05-06T09:42:15.472Z,9.17
2018-05-06T09:44:42.190Z,10.40
2018-05-06T09:47:08.900Z,8.83
2018-05-06T09:49:35.633Z,11.33
2018-05-06T09:52:02.362Z,9.50
2018-05-06T09:54:29.093Z,8.63
2018-05-06T09:56:55.796Z,9.20
2018-05-06T09:59:22.538Z,10.23
2018-05-06T10:01:49.258Z,10.50
2018-05-06T10:04:15.960Z,9.57
2018-05-06T10:06:42.765Z,11.20
2018-05-06T10:09:09.477Z,9.87
2018-05-06T10:11:36.242Z,8.80
2018-05-06T10:14:02.956Z,10.80
2018-05-06T10:16:29.666Z,9.87
2018-05-06T10:18:58.378Z,11.43
2018-05-06T10:21:25.080Z,7.90
2018-05-06T10:23:51.776Z,8.00
2018-05-06T10:26:18.500Z,8.47
2018-05-06T10:28:45.213Z,8.23
2018-05-06T10:31:11.926Z,8.33
2018-05-06T10:33:38.670Z,9.10
2018-05-06T10:36:05.365Z,8.00
2018-05-06T10:38:32.297Z,9.00
2018-05-06T10:40:58.987Z,7.83
2018-05-06T10:43:25.681Z,7.60
2018-05-06T10:45:52.450Z,8.40
2018-05-06T10:48:19.165Z,10.53
2018-05-06T10:50:45.895Z,8.03
2018-05-06T10:53:12.614Z,8.20
2018-05-06T10:55:39.319Z,7.60
2018-05-06T10:58:06.045Z,9.00
2018-05-06T11:00:32.753Z,8.67
2018-05-06T11:02:59.470Z,8.00
2018-05-06T11:05:26.190Z,9.27
2018-05-06T11:07:52.885Z,8.07
2018-05-06T11:10:19.732Z,10.30
2018-05-06T11:12:46.376Z,8.37
2018-05-06T11:15:13.079Z,10.70
2018-05-06T11:17:39.812Z,8.93
2018-05-06T11:20:06.510Z,10.00
2018-05-06T11:22:33.252Z,12.93
2018-05-06T11:24:59.978Z,7.50
2018-05-06T11:27:26.702Z,9.50
2018-05-06T11:29:53.435Z,7.60
2018-05-06T11:32:20.151Z,7.10
2018-05-06T11:34:46.961Z,7.73
2018-05-06T11:37:13.676Z,7.83
2018-05-06T11:39:40.409Z,8.03
2018-05-06T11:42:07.161Z,11.93
2018-05-06T11:44:33.855Z,8.13
2018-05-06T11:47:00.574Z,8.50
2018-05-06T11:49:27.307Z,8.87
2018-05-06T11:51:54.008Z,9.83
2018-05-06T11:54:20.724Z,7.80
2018-05-06T11:56:47.445Z,9.53
2018-05-06T11:59:14.167Z,9.67
2018-05-06T12:01:40.889Z,7.93
2018-05-06T12:04:07.602Z,7.03
2018-05-06T12:06:34.303Z,7.53
2018-05-06T12:09:01.041Z,8.43
2018-05-06T12:11:27.770Z,7.80
2018-05-06T12:13:54.473Z,11.73
2018-05-06T12:16:21.194Z,10.63
2018-05-06T12:18:47.894Z,10.57
2018-05-06T12:21:14.613Z,7.70
2018-05-06T12:23:41.345Z,7.53
2018-05-06T12:26:08.061Z,7.20
2018-05-06T12:28:34.765Z,6.73
2018-05-06T12:31:01.520Z,6.70
2018-05-06T12:33:28.215Z,9.97
2018-05-06T12:35:54.980Z,10.87
2018-05-06T12:38:21.684Z,5.93
2018-05-06T12:40:48.367Z,7.70
2018-05-06T12:43:15.101Z,6.33
2018-05-06T12:45:41.809Z,8.40
2018-05-06T12:48:08.515Z,8.13
2018-05-06T12:50:36.103Z,6.33
2018-05-06T12:53:02.876Z,6.47
2018-05-06T12:55:29.575Z,6.00
2018-05-06T12:57:56.274Z,9.77
2018-05-06T13:00:23.033Z,8.13
2018-05-06T13:02:49.736Z,5.80
2018-05-06T13:05:16.458Z,7.63
2018-05-06T13:07:43.190Z,9.23
2018-05-06T13:10:09.910Z,6.83
2018-05-06T13:12:36.614Z,6.40
2018-05-06T13:15:03.389Z,7.33
2018-05-06T13:17:30.074Z,7.50
2018-05-06T13:19:56.794Z,13.50
2018-05-06T13:22:23.533Z,8.10
2018-05-06T13:24:50.231Z,3.43
2018-05-06T13:27:16.961Z,10.73
2018-05-06T13:29:43.677Z,6.97
2018-05-06T13:32:10.404Z,5.03
2018-05-06T13:34:37.129Z,4.10
2018-05-06T13:37:03.880Z,4.20
2018-05-06T13:39:30.579Z,4.13
2018-05-06T13:41:57.283Z,6.60
2018-05-06T13:44:24.003Z,8.37
2018-05-06T13:46:50.717Z,8.87
2018-05-06T13:49:17.457Z,4.40
2018-05-06T13:51:44.184Z,4.60
2018-05-06T13:54:10.924Z,7.70
2018-05-06T13:56:37.653Z,4.40
2018-05-06T13:59:04.349Z,4.30
2018-05-06T14:01:31.160Z,9.73
2018-05-06T14:03:57.956Z,4.93
2018-05-06T14:06:24.651Z,8.30
2018-05-06T14:08:51.360Z,5.33
2018-05-06T14:11:18.092Z,7.20
2018-05-06T14:13:44.788Z,5.33
2018-05-06T14:16:11.627Z,5.43
2018-05-06T14:18:38.360Z,5.83
2018-05-06T14:21:05.142Z,8.77
2018-05-06T14:23:31.849Z,6.27
2018-05-06T14:25:58.560Z,4.53
2018-05-06T14:28:25.288Z,5.47
2018-05-06T14:30:51.991Z,3.30
2018-05-06T14:33:18.712Z,4.23
2018-05-06T14:35:45.434Z,5.47
2018-05-06T14:38:12.136Z,4.23
2018-05-06T14:40:38.858Z,5.07
2018-05-06T14:43:05.581Z,8.27
2018-05-06T14:45:32.272Z,3.60
2018-05-06T14:48:04.848Z,8.07
2018-05-06T14:50:31.536Z,5.07
2018-05-06T14:52:58.255Z,3.27
2018-05-06T14:55:24.973Z,4.47
2018-05-06T14:57:51.668Z,5.40
2018-05-06T15:00:18.398Z,4.93
2018-05-06T15:02:45.090Z,3.47
2018-05-06T15:05:11.791Z,5.73
2018-05-06T15:07:38.525Z,6.10
2018-05-06T15:10:05.274Z,5.83
2018-05-06T15:12:31.987Z,7.53
2018-05-06T15:14:58.711Z,5.50
2018-05-06T15:17:25.406Z,5.00
2018-05-06T15:19:52.153Z,5.63
2018-05-06T15:22:18.878Z,5.17
2018-05-06T15:24:45.587Z,14.80
2018-05-06T15:27:12.324Z,13.97
2018-05-06T15:29:39.033Z,4.67
2018-05-06T15:32:05.752Z,3.87
2018-05-06T15:34:32.459Z,8.07
2018-05-06T15:36:59.198Z,4.80
2018-05-06T15:39:25.926Z,5.10
2018-05-06T15:41:52.649Z,4.07
2018-05-06T15:44:19.359Z,6.27
2018-05-06T15:46:46.066Z,3.30
2018-05-06T15:49:12.805Z,6.23
2018-05-06T15:51:39.529Z,3.97
2018-05-06T15:54:06.220Z,5.37
2018-05-06T15:56:32.973Z,4.60
2018-05-06T15:58:59.678Z,5.80
2018-05-06T16:01:26.494Z,6.17
2018-05-06T16:03:59.234Z,5.23
2018-05-06T16:06:25.946Z,6.40
2018-05-06T16:08:52.676Z,4.53
2018-05-06T16:11:19.413Z,6.47
2018-05-06T16:13:46.136Z,5.63
2018-05-06T16:16:12.851Z,4.07
2018-05-06T16:18:39.578Z,4.47
2018-05-06T16:21:06.306Z,4.27
2018-05-06T16:23:33.015Z,9.83
2018-05-06T16:25:59.885Z,3.70
2018-05-06T16:28:26.608Z,3.33
2018-05-06T16:30:53.318Z,7.37
2018-05-06T16:33:20.041Z,10.37
2018-05-06T16:35:46.768Z,7.17
2018-05-06T16:38:13.480Z,6.90
2018-05-06T16:40:40.215Z,5.67
2018-05-06T16:43:06.917Z,6.47
2018-05-06T16:45:33.621Z,7.77
2018-05-06T16:48:00.349Z,5.40
2018-05-06T16:50:27.060Z,9.10
2018-05-06T16:52:53.765Z,4.00
2018-05-06T16:55:20.514Z,5.20
2018-05-06T16:57:47.216Z,7.03
2018-05-06T17:00:13.988Z,3.90
2018-05-06T17:02:40.717Z,6.27
2018-05-06T17:05:07.452Z,5.60
2018-05-06T17:07:34.207Z,3.80
2018-05-06T17:10:00.936Z,5.20
2018-05-06T17:12:27.653Z,4.37
2018-05-06T17:14:54.602Z,7.93
2018-05-06T17:17:21.322Z,4.40
2018-05-06T17:19:48.085Z,11.20
2018-05-06T17:22:15.181Z,7.80
2018-05-06T17:24:41.904Z,9.17
2018-05-06T17:27:08.650Z,5.47
2018-05-06T17:29:35.361Z,3.40
2018-05-06T17:32:02.138Z,7.00
2018-05-06T17:34:28.843Z,8.33
2018-05-06T17:36:55.623Z,7.53
2018-05-06T17:39:22.378Z,8.30
2018-05-06T17:41:49.106Z,8.57
2018-05-06T17:44:15.922Z,3.40
2018-05-06T17:46:42.680Z,6.70
2018-05-06T17:49:10.040Z,5.87
2018-05-06T17:51:36.842Z,12.00
2018-05-06T17:54:03.584Z,5.37
2018-05-06T17:56:30.321Z,7.00
2018-05-06T17:58:57.061Z,11.07
2018-05-06T18:01:23.781Z,7.90
2018-05-06T18:03:50.525Z,4.20
2018-05-06T18:06:17.327Z,12.33
2018-05-06T18:08:44.190Z,7.47
2018-05-06T18:11:10.920Z,7.50
2018-05-06T18:13:37.647Z,7.10
2018-05-06T18:16:04.575Z,6.23
2018-05-06T18:18:31.330Z,4.80
2018-05-06T18:20:58.058Z,4.10
2018-05-06T18:23:24.768Z,4.93
2018-05-06T18:25:51.528Z,9.13
2018-05-06T18:28:18.278Z,12.13
2018-05-06T18:30:45.012Z,4.50
2018-05-06T18:33:11.758Z,7.40
2018-05-06T18:35:38.485Z,8.67
2018-05-06T18:38:05.304Z,5.63
2018-05-06T18:40:32.055Z,5.27
2018-05-06T18:42:58.829Z,12.00
2018-05-06T18:45:25.590Z,6.80
2018-05-06T18:47:52.326Z,6.30
2018-05-06T18:50:19.076Z,5.20
2018-05-06T18:52:45.847Z,8.70
2018-05-06T18:55:12.578Z,6.47
2018-05-06T18:57:39.380Z,10.03
2018-05-06T19:00:06.185Z,8.83
2018-05-06T19:02:32.921Z,4.50
2018-05-06T19:04:59.674Z,9.83
2018-05-06T19:07:26.416Z,7.53
2018-05-06T19:09:53.143Z,4.60
2018-05-06T19:12:19.900Z,6.13
2018-05-06T19:14:46.622Z,3.90
2018-05-06T19:17:13.338Z,6.90
2018-05-06T19:19:40.076Z,4.57
2018-05-06T19:22:06.785Z,4.20
2018-05-06T19:24:33.506Z,7.40
2018-05-06T19:27:00.257Z,5.63
2018-05-06T19:29:27.020Z,7.50
2018-05-06T19:31:53.760Z,7.20
2018-05-06T19:34:20.475Z,5.17
2018-05-06T19:36:47.247Z,4.43
2018-05-06T19:39:13.962Z,7.10
2018-05-06T19:41:40.677Z,5.47
2018-05-06T19:44:07.443Z,4.40
2018-05-06T19:46:34.178Z,5.67
2018-05-06T19:49:01.002Z,8.83
2018-05-06T19:51:27.743Z,5.73
2018-05-06T19:53:54.481Z,4.70
2018-05-06T19:56:21.215Z,6.20
2018-05-06T19:58:47.972Z,6.97
2018-05-06T20:01:14.703Z,10.30
2018-05-06T20:03:41.426Z,8.20
2018-05-06T20:06:08.174Z,9.47
2018-05-06T20:08:35.485Z,4.97
2018-05-06T20:11:02.203Z,7.50
2018-05-06T20:13:28.940Z,7.03
2018-05-06T20:15:55.693Z,8.70
2018-05-06T20:18:22.422Z,12.13
2018-05-06T20:20:49.175Z,5.10
2018-05-06T20:23:15.901Z,7.33
2018-05-06T20:25:42.665Z,4.73
2018-05-06T20:28:09.392Z,5.90
2018-05-06T20:30:37.824Z,6.83
2018-05-06T20:33:04.629Z,6.03
2018-05-06T20:35:31.348Z,6.40
2018-05-06T20:37:58.119Z,8.10
2018-05-06T20:40:24.839Z,5.03
2018-05-06T20:42:51.539Z,6.03
2018-05-06T20:45:18.301Z,8.00
2018-05-06T20:47:45.051Z,6.53
2018-05-06T20:50:11.764Z,4.70
2018-05-06T20:52:38.513Z,6.87
2018-05-06T20:55:05.212Z,5.97
2018-05-06T20:57:31.954Z,8.90
2018-05-06T20:59:58.672Z,7.93
2018-05-06T21:02:25.365Z,5.57
2018-05-06T21:04:52.081Z,13.33
2018-05-06T21:07:18.825Z,7.17
2018-05-06T21:09:45.550Z,8.60
2018-05-06T21:12:12.464Z,5.17
2018-05-06T21:14:39.201Z,8.33
2018-05-06T21:17:05.894Z,7.27
2018-05-06T21:19:32.645Z,6.00
2018-05-06T21:21:59.556Z,7.13
2018-05-06T21:24:26.262Z,4.63
2018-05-06T21:26:53.013Z,9.03
2018-05-06T21:29:19.712Z,6.20
2018-05-06T21:31:46.591Z,7.23
2018-05-06T21:34:13.856Z,10.63
2018-05-06T21:36:40.764Z,7.63
2018-05-06T21:39:07.588Z,6.27
2018-05-06T21:41:34.271Z,6.00
2018-05-06T21:44:00.969Z,5.60
2018-05-06T21:46:27.668Z,5.80
2018-05-06T21:48:54.394Z,11.20
2018-05-06T21:51:21.108Z,8.23
2018-05-06T21:53:47.868Z,10.37
2018-05-06T21:56:14.594Z,9.00
2018-05-06T21:58:41.324Z,6.87
2018-05-06T22:01:11.987Z,7.63
2018-05-06T22:03:38.712Z,6.63
2018-05-06T22:06:05.413Z,9.33
2018-05-06T22:08:32.207Z,9.43
2018-05-06T22:10:58.946Z,9.00
2018-05-06T22:13:25.660Z,6.70
2018-05-06T22:15:52.377Z,5.40
2018-05-06T22:18:19.067Z,5.70
2018-05-06T22:20:45.783Z,5.83
2018-05-06T22:23:12.582Z,5.73
2018-05-06T22:25:39.261Z,5.57
2018-05-06T22:28:06.005Z,5.97
2018-05-06T22:30:32.720Z,6.57
2018-05-06T22:32:59.464Z,5.83
2018-05-06T22:35:26.186Z,6.13
2018-05-06T22:37:52.890Z,7.20
2018-05-06T22:40:19.607Z,7.13
2018-05-06T22:42:46.306Z,6.17
2018-05-06T22:45:13.042Z,5.33
2018-05-06T22:47:39.756Z,3.87
2018-05-06T22:50:06.457Z,9.90
2018-05-06T22:52:33.167Z,4.50
2018-05-06T22:54:59.873Z,9.27
2018-05-06T22:57:26.647Z,3.97
2018-05-06T22:59:53.399Z,4.93
2018-05-06T23:02:20.095Z,5.53
2018-05-06T23:04:46.833Z,10.03
2018-05-06T23:07:13.536Z,5.27
2018-05-06T23:09:40.264Z,5.43
2018-05-06T23:12:06.974Z,6.03
2018-05-06T23:14:33.674Z,12.33
2018-05-06T23:17:00.396Z,5.47
2018-05-06T23:19:27.096Z,7.07
2018-05-06T23:21:53.832Z,4.70
2018-05-06T23:24:20.530Z,5.30
2018-05-06T23:26:47.240Z,5.63
2018-05-06T23:29:14.011Z,8.83
2018-05-06T23:31:40.786Z,4.57
2018-05-06T23:34:07.497Z,5.90
2018-05-06T23:36:34.223Z,6.37
2018-05-06T23:39:00.925Z,4.13
2018-05-06T23:41:27.656Z,5.13
2018-05-06T23:43:54.361Z,4.80
2018-05-06T23:46:22.004Z,5.80
2018-05-06T23:48:48.705Z,4.80
2018-05-06T23:51:15.402Z,7.77
2018-05-06T23:53:42.141Z,4.83
2018-05-06T23:56:08.837Z,6.40
2018-05-06T23:58:35.540Z,5.33
